sensor_id;sensor_type;location;lat;lon;timestamp;pressure;altitude;pressure_sealevel;temperature;humidity
59873;BME280;50750;51.636;4.948;2023-11-21T00:00:34;101229.73;;;14.13;65.72
59873;BME280;50750;51.636;4.948;2023-11-21T00:03:21;101226.60;;;14.12;65.57
59873;BME280;50750;51.636;4.948;2023-11-21T00:05:49;101228.36;;;14.12;65.75
59873;BME280;50750;51.636;4.948;2023-11-21T00:08:16;101226.07;;;14.12;65.49
59873;BME280;50750;51.636;4.948;2023-11-21T00:10:42;101225.89;;;14.12;65.63
59873;BME280;50750;51.636;4.948;2023-11-21T00:13:09;101226.23;;;14.13;65.45
59873;BME280;50750;51.636;4.948;2023-11-21T00:15:38;101228.33;;;14.13;65.66
59873;BME280;50750;51.636;4.948;2023-11-21T00:18:05;101231.33;;;14.13;65.65
59873;BME280;50750;51.636;4.948;2023-11-21T00:20:31;101230.27;;;14.13;65.44
59873;BME280;50750;51.636;4.948;2023-11-21T00:22:58;101233.60;;;14.13;65.54
59873;BME280;50750;51.636;4.948;2023-11-21T00:25:26;101234.33;;;14.13;65.57
59873;BME280;50750;51.636;4.948;2023-11-21T00:27:52;101237.85;;;14.13;65.50
59873;BME280;50750;51.636;4.948;2023-11-21T00:30:18;101234.73;;;14.11;65.51
59873;BME280;50750;51.636;4.948;2023-11-21T00:32:46;101235.27;;;14.11;65.59
59873;BME280;50750;51.636;4.948;2023-11-21T00:35:12;101235.81;;;14.11;65.57
59873;BME280;50750;51.636;4.948;2023-11-21T00:37:39;101237.73;;;14.11;65.40
59873;BME280;50750;51.636;4.948;2023-11-21T00:40:06;101239.48;;;14.11;65.47
59873;BME280;50750;51.636;4.948;2023-11-21T00:42:52;101241.39;;;14.12;65.46
59873;BME280;50750;51.636;4.948;2023-11-21T00:45:19;101238.92;;;14.12;65.38
59873;BME280;50750;51.636;4.948;2023-11-21T00:47:45;101237.33;;;14.12;65.49
59873;BME280;50750;51.636;4.948;2023-11-21T00:50:12;101238.75;;;14.12;65.52
59873;BME280;50750;51.636;4.948;2023-11-21T00:52:38;101244.94;;;14.12;65.38
59873;BME280;50750;51.636;4.948;2023-11-21T00:55:05;101245.14;;;14.11;65.36
59873;BME280;50750;51.636;4.948;2023-11-21T00:57:34;101245.33;;;14.11;65.32
59873;BME280;50750;51.636;4.948;2023-11-21T01:00:01;101243.59;;;14.10;65.60
59873;BME280;50750;51.636;4.948;2023-11-21T01:02:27;101247.48;;;14.10;65.54
59873;BME280;50750;51.636;4.948;2023-11-21T01:04:53;101255.39;;;14.10;65.32
59873;BME280;50750;51.636;4.948;2023-11-21T01:07:20;101258.73;;;14.10;65.46
59873;BME280;50750;51.636;4.948;2023-11-21T01:09:46;101258.74;;;14.10;65.48
59873;BME280;50750;51.636;4.948;2023-11-21T01:12:13;101257.51;;;14.10;65.41
59873;BME280;50750;51.636;4.948;2023-11-21T01:14:39;101261.20;;;14.10;65.24
59873;BME280;50750;51.636;4.948;2023-11-21T01:17:06;101266.15;;;14.10;65.50
59873;BME280;50750;51.636;4.948;2023-11-21T01:19:33;101269.33;;;14.10;65.35
59873;BME280;50750;51.636;4.948;2023-11-21T01:21:59;101275.65;;;14.10;65.40
59873;BME280;50750;51.636;4.948;2023-11-21T01:24:26;101274.63;;;14.09;65.38
59873;BME280;50750;51.636;4.948;2023-11-21T01:26:52;101276.05;;;14.09;65.27
59873;BME280;50750;51.636;4.948;2023-11-21T01:29:18;101273.45;;;14.08;65.40
59873;BME280;50750;51.636;4.948;2023-11-21T01:31:46;101273.80;;;14.08;65.29
59873;BME280;50750;51.636;4.948;2023-11-21T01:34:13;101279.09;;;14.07;65.43
59873;BME280;50750;51.636;4.948;2023-11-21T01:36:40;101280.50;;;14.08;65.29
59873;BME280;50750;51.636;4.948;2023-11-21T01:39:06;101286.84;;;14.07;65.40
59873;BME280;50750;51.636;4.948;2023-11-21T01:41:35;101287.20;;;14.07;65.24
59873;BME280;50750;51.636;4.948;2023-11-21T01:44:01;101287.55;;;14.07;65.21
59873;BME280;50750;51.636;4.948;2023-11-21T01:46:28;101294.25;;;14.07;65.35
59873;BME280;50750;51.636;4.948;2023-11-21T01:48:55;101298.46;;;14.07;65.44
59873;BME280;50750;51.636;4.948;2023-11-21T01:51:21;101299.52;;;14.07;65.38
59873;BME280;50750;51.636;4.948;2023-11-21T01:53:48;101300.09;;;14.06;65.24
59873;BME280;50750;51.636;4.948;2023-11-21T01:56:16;101297.83;;;14.06;65.44
59873;BME280;50750;51.636;4.948;2023-11-21T01:58:42;101302.77;;;14.05;65.20
59873;BME280;50750;51.636;4.948;2023-11-21T02:01:09;101304.73;;;14.04;65.28
59873;BME280;50750;51.636;4.948;2023-11-21T02:03:36;101305.95;;;14.05;65.35
59873;BME280;50750;51.636;4.948;2023-11-21T02:06:03;101307.35;;;14.05;65.29
59873;BME280;50750;51.636;4.948;2023-11-21T02:08:29;101308.77;;;14.05;65.29
59873;BME280;50750;51.636;4.948;2023-11-21T02:10:56;101316.51;;;14.05;65.16
59873;BME280;50750;51.636;4.948;2023-11-21T02:13:23;101316.16;;;14.05;65.27
59873;BME280;50750;51.636;4.948;2023-11-21T02:15:50;101320.20;;;14.05;65.33
59873;BME280;50750;51.636;4.948;2023-11-21T02:18:18;101323.55;;;14.05;65.36
59873;BME280;50750;51.636;4.948;2023-11-21T02:20:45;101321.61;;;14.05;65.35
59873;BME280;50750;51.636;4.948;2023-11-21T02:23:12;101329.55;;;14.05;65.35
59873;BME280;50750;51.636;4.948;2023-11-21T02:25:39;101330.46;;;14.04;65.28
59873;BME280;50750;51.636;4.948;2023-11-21T02:28:05;101333.48;;;14.03;65.32
59873;BME280;50750;51.636;4.948;2023-11-21T02:30:33;101334.56;;;14.03;65.27
59873;BME280;50750;51.636;4.948;2023-11-21T02:33:02;101338.08;;;14.03;65.39
59873;BME280;50750;51.636;4.948;2023-11-21T02:35:29;101337.02;;;14.03;65.40
59873;BME280;50750;51.636;4.948;2023-11-21T02:37:57;101337.02;;;14.03;65.34
59873;BME280;50750;51.636;4.948;2023-11-21T02:40:24;101335.95;;;14.03;65.24
59873;BME280;50750;51.636;4.948;2023-11-21T02:42:53;101332.63;;;14.03;65.43
59873;BME280;50750;51.636;4.948;2023-11-21T02:45:20;101328.58;;;14.03;65.36
59873;BME280;50750;51.636;4.948;2023-11-21T02:47:47;101327.54;;;14.02;65.25
59873;BME280;50750;51.636;4.948;2023-11-21T02:50:15;101325.97;;;14.02;65.37
59873;BME280;50750;51.636;4.948;2023-11-21T02:52:42;101325.27;;;14.02;65.32
59873;BME280;50750;51.636;4.948;2023-11-21T02:55:08;101324.64;;;14.00;65.29
59873;BME280;50750;51.636;4.948;2023-11-21T02:57:35;101327.46;;;14.00;65.36
59873;BME280;50750;51.636;4.948;2023-11-21T03:00:01;101323.27;;;13.99;65.58
59873;BME280;50750;51.636;4.948;2023-11-21T03:02:28;101326.95;;;13.99;65.43
59873;BME280;50750;51.636;4.948;2023-11-21T03:04:55;101335.73;;;14.00;65.45
59873;BME280;50750;51.636;4.948;2023-11-21T03:07:21;101338.20;;;14.00;65.44
59873;BME280;50750;51.636;4.948;2023-11-21T03:09:48;101338.55;;;14.00;65.40
59873;BME280;50750;51.636;4.948;2023-11-21T03:12:14;101338.51;;;14.01;65.16
59873;BME280;50750;51.636;4.948;2023-11-21T03:14:42;101340.80;;;14.01;65.47
59873;BME280;50750;51.636;4.948;2023-11-21T03:17:08;101344.52;;;14.00;65.41
59873;BME280;50750;51.636;4.948;2023-11-21T03:19:34;101342.40;;;14.00;65.50
59873;BME280;50750;51.636;4.948;2023-11-21T03:22:01;101341.02;;;14.00;65.37
59873;BME280;50750;51.636;4.948;2023-11-21T03:24:27;101345.75;;;14.00;65.25
59873;BME280;50750;51.636;4.948;2023-11-21T03:26:53;101347.02;;;13.99;65.44
59873;BME280;50750;51.636;4.948;2023-11-21T03:29:20;101343.16;;;13.99;65.32
59873;BME280;50750;51.636;4.948;2023-11-21T03:31:46;101344.02;;;13.99;65.46
59873;BME280;50750;51.636;4.948;2023-11-21T03:34:23;101347.37;;;13.99;65.50
59873;BME280;50750;51.636;4.948;2023-11-21T03:36:50;101350.17;;;13.99;65.43
59873;BME280;50750;51.636;4.948;2023-11-21T03:39:16;101356.51;;;14.00;65.54
59873;BME280;50750;51.636;4.948;2023-11-21T03:41:42;101357.93;;;13.99;65.32
59873;BME280;50750;51.636;4.948;2023-11-21T03:44:09;101357.05;;;13.99;65.36
59873;BME280;50750;51.636;4.948;2023-11-21T03:46:35;101355.30;;;13.99;65.31
59873;BME280;50750;51.636;4.948;2023-11-21T03:49:02;101353.19;;;13.99;65.37
59873;BME280;50750;51.636;4.948;2023-11-21T03:51:28;101350.56;;;13.99;65.52
59873;BME280;50750;51.636;4.948;2023-11-21T03:53:54;101350.23;;;13.98;65.50
59873;BME280;50750;51.636;4.948;2023-11-21T03:56:21;101348.67;;;13.98;65.42
59873;BME280;50750;51.636;4.948;2023-11-21T03:58:50;101352.02;;;13.98;65.43
59873;BME280;50750;51.636;4.948;2023-11-21T04:01:23;101355.20;;;13.97;65.45
59873;BME280;50750;51.636;4.948;2023-11-21T04:03:50;101355.04;;;13.97;65.43
59873;BME280;50750;51.636;4.948;2023-11-21T04:06:17;101365.58;;;13.98;65.31
59873;BME280;50750;51.636;4.948;2023-11-21T04:08:44;101374.38;;;13.98;65.44
59873;BME280;50750;51.636;4.948;2023-11-21T04:11:12;101378.98;;;13.97;65.50
59873;BME280;50750;51.636;4.948;2023-11-21T04:13:39;101381.95;;;13.98;65.41
59873;BME280;50750;51.636;4.948;2023-11-21T04:16:07;101386.34;;;13.98;65.46
59873;BME280;50750;51.636;4.948;2023-11-21T04:18:37;101392.52;;;13.97;65.48
59873;BME280;50750;51.636;4.948;2023-11-21T04:21:05;101394.46;;;13.97;65.43
59873;BME280;50750;51.636;4.948;2023-11-21T04:23:32;101398.86;;;13.97;65.51
59873;BME280;50750;51.636;4.948;2023-11-21T04:25:59;101399.62;;;13.96;65.47
59873;BME280;50750;51.636;4.948;2023-11-21T04:28:26;101404.02;;;13.96;65.39
59873;BME280;50750;51.636;4.948;2023-11-21T04:30:52;101411.41;;;13.96;65.57
59873;BME280;50750;51.636;4.948;2023-11-21T04:33:19;101414.05;;;13.96;65.57
59873;BME280;50750;51.636;4.948;2023-11-21T04:35:45;101414.36;;;13.97;65.48
59873;BME280;50750;51.636;4.948;2023-11-21T04:38:12;101419.29;;;13.97;65.45
59873;BME280;50750;51.636;4.948;2023-11-21T04:40:38;101427.21;;;13.97;65.42
59873;BME280;50750;51.636;4.948;2023-11-21T04:43:05;101426.52;;;13.97;65.58
59873;BME280;50750;51.636;4.948;2023-11-21T04:45:31;101434.08;;;13.97;65.35
59873;BME280;50750;51.636;4.948;2023-11-21T04:47:58;101434.97;;;13.97;65.49
59873;BME280;50750;51.636;4.948;2023-11-21T04:50:25;101435.33;;;13.96;65.39
59873;BME280;50750;51.636;4.948;2023-11-21T04:52:53;101438.68;;;13.96;65.69
59873;BME280;50750;51.636;4.948;2023-11-21T04:55:20;101435.02;;;13.95;65.54
59873;BME280;50750;51.636;4.948;2023-11-21T04:57:46;101435.91;;;13.95;65.49
59873;BME280;50750;51.636;4.948;2023-11-21T05:00:13;101431.69;;;13.95;65.63
59873;BME280;50750;51.636;4.948;2023-11-21T05:02:40;101432.39;;;13.95;65.58
59873;BME280;50750;51.636;4.948;2023-11-21T05:05:08;101437.64;;;13.96;65.59
59873;BME280;50750;51.636;4.948;2023-11-21T05:07:36;101437.44;;;13.96;65.62
59873;BME280;50750;51.636;4.948;2023-11-21T05:10:07;101436.55;;;13.97;65.56
59873;BME280;50750;51.636;4.948;2023-11-21T05:12:37;101440.61;;;13.97;65.56
59873;BME280;50750;51.636;4.948;2023-11-21T05:15:05;101445.89;;;13.97;65.67
59873;BME280;50750;51.636;4.948;2023-11-21T05:17:39;101449.05;;;13.97;65.52
59873;BME280;50750;51.636;4.948;2023-11-21T05:20:09;101450.98;;;13.97;65.78
59873;BME280;50750;51.636;4.948;2023-11-21T05:22:37;101452.95;;;13.96;65.64
59873;BME280;50750;51.636;4.948;2023-11-21T05:25:04;101457.70;;;13.96;65.57
59873;BME280;50750;51.636;4.948;2023-11-21T05:27:31;101462.28;;;13.96;65.60
59873;BME280;50750;51.636;4.948;2023-11-21T05:29:58;101465.98;;;13.96;65.65
59873;BME280;50750;51.636;4.948;2023-11-21T05:32:24;101467.36;;;13.97;65.72
59873;BME280;50750;51.636;4.948;2023-11-21T05:34:52;101471.41;;;13.97;65.62
59873;BME280;50750;51.636;4.948;2023-11-21T05:37:18;101474.92;;;13.98;65.66
59873;BME280;50750;51.636;4.948;2023-11-21T05:39:45;101478.27;;;13.97;65.59
59873;BME280;50750;51.636;4.948;2023-11-21T05:42:11;101484.06;;;13.98;65.71
59873;BME280;50750;51.636;4.948;2023-11-21T05:44:41;101486.02;;;13.97;65.66
59873;BME280;50750;51.636;4.948;2023-11-21T05:47:08;101487.23;;;13.97;65.61
59873;BME280;50750;51.636;4.948;2023-11-21T05:49:35;101488.15;;;13.97;65.63
59873;BME280;50750;51.636;4.948;2023-11-21T05:52:01;101488.34;;;13.96;65.54
59873;BME280;50750;51.636;4.948;2023-11-21T05:54:27;101488.70;;;13.96;65.70
59873;BME280;50750;51.636;4.948;2023-11-21T05:56:54;101497.17;;;13.96;65.80
59873;BME280;50750;51.636;4.948;2023-11-21T05:59:21;101497.72;;;13.95;65.70
59873;BME280;50750;51.636;4.948;2023-11-21T06:01:47;101505.59;;;13.96;65.64
59873;BME280;50750;51.636;4.948;2023-11-21T06:04:14;101512.08;;;13.97;65.70
59873;BME280;50750;51.636;4.948;2023-11-21T06:06:40;101513.67;;;13.97;65.59
59873;BME280;50750;51.636;4.948;2023-11-21T06:09:07;101519.48;;;13.97;65.73
59873;BME280;50750;51.636;4.948;2023-11-21T06:11:35;101520.38;;;13.96;65.66
59873;BME280;50750;51.636;4.948;2023-11-21T06:14:02;101520.88;;;13.97;65.53
59873;BME280;50750;51.636;4.948;2023-11-21T06:16:28;101521.44;;;13.96;65.84
59873;BME280;50750;51.636;4.948;2023-11-21T06:18:55;101523.22;;;13.96;65.66
59873;BME280;50750;51.636;4.948;2023-11-21T06:21:21;101529.39;;;13.95;65.79
59873;BME280;50750;51.636;4.948;2023-11-21T06:23:48;101532.21;;;13.95;65.83
59873;BME280;50750;51.636;4.948;2023-11-21T06:26:14;101535.73;;;13.96;65.68
59873;BME280;50750;51.636;4.948;2023-11-21T06:28:40;101540.28;;;13.96;65.84
59873;BME280;50750;51.636;4.948;2023-11-21T06:31:07;101542.90;;;13.97;65.78
59873;BME280;50750;51.636;4.948;2023-11-21T06:33:34;101549.24;;;13.96;65.77
59873;BME280;50750;51.636;4.948;2023-11-21T06:36:00;101549.24;;;13.97;65.78
59873;BME280;50750;51.636;4.948;2023-11-21T06:38:29;101548.89;;;13.97;65.55
59873;BME280;50750;51.636;4.948;2023-11-21T06:40:56;101549.26;;;13.96;65.70
59873;BME280;50750;51.636;4.948;2023-11-21T06:43:24;101549.95;;;13.96;65.82
59873;BME280;50750;51.636;4.948;2023-11-21T06:45:50;101550.14;;;13.96;65.68
59873;BME280;50750;51.636;4.948;2023-11-21T06:48:17;101544.52;;;13.96;65.84
59873;BME280;50750;51.636;4.948;2023-11-21T06:50:43;101547.37;;;13.95;65.98
59873;BME280;50750;51.636;4.948;2023-11-21T06:53:10;101545.45;;;13.94;65.86
59873;BME280;50750;51.636;4.948;2023-11-21T06:55:36;101546.34;;;13.93;66.04
59873;BME280;50750;51.636;4.948;2023-11-21T06:58:03;101550.73;;;13.94;66.13
59873;BME280;50750;51.636;4.948;2023-11-21T07:00:31;101550.36;;;13.94;65.83
59873;BME280;50750;51.636;4.948;2023-11-21T07:02:57;101554.78;;;13.94;65.88
59873;BME280;50750;51.636;4.948;2023-11-21T07:05:24;101563.76;;;13.95;65.98
59873;BME280;50750;51.636;4.948;2023-11-21T07:07:50;101571.15;;;13.95;66.00
59873;BME280;50750;51.636;4.948;2023-11-21T07:10:17;101577.14;;;13.95;65.84
59873;BME280;50750;51.636;4.948;2023-11-21T07:12:43;101582.59;;;13.94;65.90
59873;BME280;50750;51.636;4.948;2023-11-21T07:15:10;101587.89;;;13.94;65.88
59873;BME280;50750;51.636;4.948;2023-11-21T07:17:36;101591.79;;;13.93;66.07
59873;BME280;50750;51.636;4.948;2023-11-21T07:20:04;101596.35;;;13.94;65.85
59873;BME280;50750;51.636;4.948;2023-11-21T07:22:31;101598.29;;;13.93;66.08
59873;BME280;50750;51.636;4.948;2023-11-21T07:24:58;101602.52;;;13.93;66.04
59873;BME280;50750;51.636;4.948;2023-11-21T07:27:24;101610.24;;;13.95;65.97
59873;BME280;50750;51.636;4.948;2023-11-21T07:29:50;101609.16;;;13.95;65.89
59873;BME280;50750;51.636;4.948;2023-11-21T07:32:17;101605.61;;;13.96;65.98
59873;BME280;50750;51.636;4.948;2023-11-21T07:34:43;101610.70;;;13.96;65.90
59873;BME280;50750;51.636;4.948;2023-11-21T07:37:10;101611.92;;;13.97;65.81
59873;BME280;50750;51.636;4.948;2023-11-21T07:39:36;101611.74;;;13.97;66.00
59873;BME280;50750;51.636;4.948;2023-11-21T07:42:03;101613.69;;;13.96;65.87
59873;BME280;50750;51.636;4.948;2023-11-21T07:44:30;101618.46;;;13.96;65.92
59873;BME280;50750;51.636;4.948;2023-11-21T07:46:57;101620.07;;;13.96;65.81
59873;BME280;50750;51.636;4.948;2023-11-21T07:49:24;101622.55;;;13.95;65.94
59873;BME280;50750;51.636;4.948;2023-11-21T07:51:52;101626.95;;;13.95;66.04
59873;BME280;50750;51.636;4.948;2023-11-21T07:54:19;101629.77;;;13.95;65.97
59873;BME280;50750;51.636;4.948;2023-11-21T07:56:47;101634.52;;;13.95;66.06
59873;BME280;50750;51.636;4.948;2023-11-21T07:59:13;101639.08;;;13.96;66.00
59873;BME280;50750;51.636;4.948;2023-11-21T08:01:40;101645.42;;;13.95;66.08
59873;BME280;50750;51.636;4.948;2023-11-21T08:04:06;101654.20;;;13.96;65.89
59873;BME280;50750;51.636;4.948;2023-11-21T08:06:34;101654.73;;;13.96;65.88
59873;BME280;50750;51.636;4.948;2023-11-21T08:09:01;101658.61;;;13.96;65.85
59873;BME280;50750;51.636;4.948;2023-11-21T08:11:27;101655.45;;;13.96;66.05
59873;BME280;50750;51.636;4.948;2023-11-21T08:13:55;101656.34;;;13.95;65.93
59873;BME280;50750;51.636;4.948;2023-11-21T08:16:23;101663.59;;;13.94;66.03
59873;BME280;50750;51.636;4.948;2023-11-21T08:18:50;101668.88;;;13.94;65.92
59873;BME280;50750;51.636;4.948;2023-11-21T08:21:17;101674.85;;;13.94;66.09
59873;BME280;50750;51.636;4.948;2023-11-21T08:23:43;101676.97;;;13.95;65.94
59873;BME280;50750;51.636;4.948;2023-11-21T08:26:10;101680.83;;;13.95;65.95
59873;BME280;50750;51.636;4.948;2023-11-21T08:28:36;101681.52;;;13.95;66.22
59873;BME280;50750;51.636;4.948;2023-11-21T08:31:02;101683.65;;;13.95;66.02
59873;BME280;50750;51.636;4.948;2023-11-21T08:33:30;101688.05;;;13.95;65.93
59873;BME280;50750;51.636;4.948;2023-11-21T08:35:57;101692.63;;;13.95;65.91
59873;BME280;50750;51.636;4.948;2023-11-21T08:38:23;101698.61;;;13.95;66.02
59873;BME280;50750;51.636;4.948;2023-11-21T08:40:50;101702.84;;;13.95;66.10
59873;BME280;50750;51.636;4.948;2023-11-21T08:43:16;101708.48;;;13.95;66.14
59873;BME280;50750;51.636;4.948;2023-11-21T08:45:46;101709.02;;;13.94;66.07
59873;BME280;50750;51.636;4.948;2023-11-21T08:48:12;101703.73;;;13.94;66.18
59873;BME280;50750;51.636;4.948;2023-11-21T08:50:39;101705.33;;;13.94;66.03
59873;BME280;50750;51.636;4.948;2023-11-21T08:53:05;101703.73;;;13.95;66.01
59873;BME280;50750;51.636;4.948;2023-11-21T08:55:32;101703.90;;;13.95;66.21
59873;BME280;50750;51.636;4.948;2023-11-21T08:58:03;101712.88;;;13.95;65.99
59873;BME280;50750;51.636;4.948;2023-11-21T09:00:32;101709.54;;;13.95;66.07
59873;BME280;50750;51.636;4.948;2023-11-21T09:03:01;101714.10;;;13.96;66.14
59873;BME280;50750;51.636;4.948;2023-11-21T09:05:28;101715.88;;;13.95;66.18
59873;BME280;50750;51.636;4.948;2023-11-21T09:07:54;101716.73;;;13.95;66.06
59873;BME280;50750;51.636;4.948;2023-11-21T09:10:21;101720.63;;;13.94;66.22
59873;BME280;50750;51.636;4.948;2023-11-21T09:12:47;101725.56;;;13.94;66.03
59873;BME280;50750;51.636;4.948;2023-11-21T09:15:14;101731.02;;;13.95;65.99
59873;BME280;50750;51.636;4.948;2023-11-21T09:17:41;101729.08;;;13.95;66.21
59873;BME280;50750;51.636;4.948;2023-11-21T09:20:09;101735.58;;;13.95;66.08
59873;BME280;50750;51.636;4.948;2023-11-21T09:22:36;101736.97;;;13.96;66.09
59873;BME280;50750;51.636;4.948;2023-11-21T09:25:03;101745.23;;;13.96;66.22
59873;BME280;50750;51.636;4.948;2023-11-21T09:27:33;101749.29;;;13.96;66.16
59873;BME280;50750;51.636;4.948;2023-11-21T09:29:59;101754.05;;;13.96;66.25
59873;BME280;50750;51.636;4.948;2023-11-21T09:32:26;101758.80;;;13.96;66.09
59873;BME280;50750;51.636;4.948;2023-11-21T09:34:52;101757.94;;;13.95;66.20
59873;BME280;50750;51.636;4.948;2023-11-21T09:37:21;101761.46;;;13.95;66.07
59873;BME280;50750;51.636;4.948;2023-11-21T09:39:48;101759.53;;;13.95;66.13
59873;BME280;50750;51.636;4.948;2023-11-21T09:42:23;101766.04;;;13.96;66.31
59873;BME280;50750;51.636;4.948;2023-11-21T09:45:05;101770.06;;;13.96;66.23
59873;BME280;50750;51.636;4.948;2023-11-21T09:47:35;101773.92;;;13.97;66.05
59873;BME280;50750;51.636;4.948;2023-11-21T09:50:05;101777.27;;;13.97;66.26
59873;BME280;50750;51.636;4.948;2023-11-21T09:53:26;101777.61;;;13.97;66.06
59873;BME280;50750;51.636;4.948;2023-11-21T09:55:27;101781.11;;;13.98;66.20
59873;BME280;50750;51.636;4.948;2023-11-21T09:58:03;101783.39;;;13.98;66.13
59873;BME280;50750;51.636;4.948;2023-11-21T10:00:32;101786.05;;;13.98;66.22
59873;BME280;50750;51.636;4.948;2023-11-21T10:02:59;101784.98;;;13.98;66.05
59873;BME280;50750;51.636;4.948;2023-11-21T10:05:26;101786.94;;;13.97;66.15
59873;BME280;50750;51.636;4.948;2023-11-21T10:07:53;101791.69;;;13.98;66.06
59873;BME280;50750;51.636;4.948;2023-11-21T10:10:24;101794.69;;;13.97;66.13
59873;BME280;50750;51.636;4.948;2023-11-21T10:12:55;101796.42;;;13.98;66.13
59873;BME280;50750;51.636;4.948;2023-11-21T10:15:23;101802.73;;;13.99;66.27
59873;BME280;50750;51.636;4.948;2023-11-21T10:17:53;101806.59;;;14.00;66.06
59873;BME280;50750;51.636;4.948;2023-11-21T10:20:23;101815.38;;;14.00;66.03
59873;BME280;50750;51.636;4.948;2023-11-21T10:22:50;101817.64;;;14.01;66.10
59873;BME280;50750;51.636;4.948;2023-11-21T10:25:17;101817.98;;;14.01;66.15
59873;BME280;50750;51.636;4.948;2023-11-21T10:27:48;101821.67;;;14.02;66.07
59873;BME280;50750;51.636;4.948;2023-11-21T10:30:18;101827.84;;;14.01;65.97
59873;BME280;50750;51.636;4.948;2023-11-21T10:32:44;101828.90;;;14.01;66.06
59873;BME280;50750;51.636;4.948;2023-11-21T10:35:11;101830.13;;;14.01;66.04
59873;BME280;50750;51.636;4.948;2023-11-21T10:37:41;101833.83;;;14.01;66.12
59873;BME280;50750;51.636;4.948;2023-11-21T10:40:10;101837.20;;;14.01;66.05
59873;BME280;50750;51.636;4.948;2023-11-21T10:42:40;101841.92;;;14.01;66.17
59873;BME280;50750;51.636;4.948;2023-11-21T10:45:08;101845.59;;;14.02;66.18
59873;BME280;50750;51.636;4.948;2023-11-21T10:47:42;101846.13;;;14.02;66.12
59873;BME280;50750;51.636;4.948;2023-11-21T10:50:08;101850.52;;;14.03;66.19
59873;BME280;50750;51.636;4.948;2023-11-21T10:52:39;101844.16;;;14.03;66.17
59873;BME280;50750;51.636;4.948;2023-11-21T10:55:16;101843.09;;;14.04;66.05
59873;BME280;50750;51.636;4.948;2023-11-21T10:57:45;101846.43;;;14.04;66.29
59873;BME280;50750;51.636;4.948;2023-11-21T11:00:13;101847.33;;;14.04;66.13
59873;BME280;50750;51.636;4.948;2023-11-21T11:02:40;101847.86;;;14.03;66.04
59873;BME280;50750;51.636;4.948;2023-11-21T11:05:07;101849.09;;;14.03;66.17
59873;BME280;50750;51.636;4.948;2023-11-21T11:07:41;101851.39;;;14.03;66.08
59873;BME280;50750;51.636;4.948;2023-11-21T11:10:10;101852.62;;;14.04;66.18
59873;BME280;50750;51.636;4.948;2023-11-21T11:12:41;101856.46;;;14.04;66.20
59873;BME280;50750;51.636;4.948;2023-11-21T11:15:08;101861.05;;;14.04;66.15
59873;BME280;50750;51.636;4.948;2023-11-21T11:17:38;101860.33;;;14.05;66.27
59873;BME280;50750;51.636;4.948;2023-11-21T11:20:05;101863.13;;;14.05;66.26
59873;BME280;50750;51.636;4.948;2023-11-21T11:28:06;101872.81;;;14.05;66.08
59873;BME280;50750;51.636;4.948;2023-11-21T11:30:57;101877.92;;;14.05;66.21
59873;BME280;50750;51.636;4.948;2023-11-21T11:33:43;101883.73;;;14.05;66.27
59873;BME280;50750;51.636;4.948;2023-11-21T11:36:31;101886.75;;;14.04;66.25
59873;BME280;50750;51.636;4.948;2023-11-21T11:39:00;101893.59;;;14.05;66.26
59873;BME280;50750;51.636;4.948;2023-11-21T11:41:31;101897.31;;;14.04;66.22
59873;BME280;50750;51.636;4.948;2023-11-21T11:44:00;101892.55;;;14.05;66.39
59873;BME280;50750;51.636;4.948;2023-11-21T11:46:41;101892.89;;;14.05;66.07
59873;BME280;50750;51.636;4.948;2023-11-21T11:49:08;101898.88;;;14.05;66.29
59873;BME280;50750;51.636;4.948;2023-11-21T11:51:35;101902.39;;;14.05;66.37
59873;BME280;50750;51.636;4.948;2023-11-21T11:54:05;101902.05;;;14.05;66.36
59873;BME280;50750;51.636;4.948;2023-11-21T11:56:34;101904.85;;;14.06;66.37
59873;BME280;50750;51.636;4.948;2023-11-21T11:59:03;101908.73;;;14.06;66.38
59873;BME280;50750;51.636;4.948;2023-11-21T12:01:32;101908.56;;;14.05;66.38
59873;BME280;50750;51.636;4.948;2023-11-21T12:06:41;101917.90;;;14.05;66.35
59873;BME280;50750;51.636;4.948;2023-11-21T12:09:19;101919.66;;;14.05;66.44
59873;BME280;50750;51.636;4.948;2023-11-21T12:11:50;101925.45;;;14.06;66.32
59873;BME280;50750;51.636;4.948;2023-11-21T12:14:17;101923.86;;;14.06;66.37
59873;BME280;50750;51.636;4.948;2023-11-21T12:16:44;101925.13;;;14.05;66.38
59873;BME280;50750;51.636;4.948;2023-11-21T12:19:11;101929.52;;;14.05;66.35
59873;BME280;50750;51.636;4.948;2023-11-21T12:21:39;101927.42;;;14.05;66.40
59873;BME280;50750;51.636;4.948;2023-11-21T12:24:07;101929.89;;;14.05;66.28
59873;BME280;50750;51.636;4.948;2023-11-21T12:26:35;101937.46;;;14.05;66.40
59873;BME280;50750;51.636;4.948;2023-11-21T12:29:02;101941.67;;;14.05;66.60
59873;BME280;50750;51.636;4.948;2023-11-21T12:31:30;101949.07;;;14.05;66.51
59873;BME280;50750;51.636;4.948;2023-11-21T12:33:57;101952.59;;;14.05;66.46
59873;BME280;50750;51.636;4.948;2023-11-21T12:36:24;101959.63;;;14.05;66.41
59873;BME280;50750;51.636;4.948;2023-11-21T12:38:51;101958.57;;;14.06;66.43
59873;BME280;50750;51.636;4.948;2023-11-21T12:41:18;101960.31;;;14.06;66.51
59873;BME280;50750;51.636;4.948;2023-11-21T12:43:44;101961.36;;;14.06;66.54
59873;BME280;50750;51.636;4.948;2023-11-21T12:46:11;101960.12;;;14.07;66.64
59873;BME280;50750;51.636;4.948;2023-11-21T12:48:38;101961.55;;;14.06;66.51
59873;BME280;50750;51.636;4.948;2023-11-21T12:51:11;101960.86;;;14.06;66.59
59873;BME280;50750;51.636;4.948;2023-11-21T12:53:38;101962.43;;;14.06;66.51
59873;BME280;50750;51.636;4.948;2023-11-21T12:56:11;101961.19;;;14.06;66.63
59873;BME280;50750;51.636;4.948;2023-11-21T12:58:39;101956.77;;;14.07;66.46
59873;BME280;50750;51.636;4.948;2023-11-21T13:01:08;101958.89;;;14.07;66.54